Time;durP1;ratioP1;P1;durP2;ratioP2;P2;SDS_P1;SDS_P2;PMS_P1;PMS_P2;Temp;Humidity;BMP_temperature;BMP_pressure;BME280_temperature;BME280_humidity;BME280_pressure;Samples;Min_cycle;Max_cycle;Signal;HPM_P1;HPM_P2
2022/10/11 00:02:09;;;;;;;19.63;13.90;;;;;;;15.57;82.69;95525.63;5112197;28;20442;-79
2022/10/11 00:04:36;;;;;;;21.20;15.30;;;;;;;15.45;83.53;95533.75;5111915;28;20491;-79
2022/10/11 00:07:02;;;;;;;21.37;14.27;;;;;;;15.46;83.91;95535.44;5111972;28;20490;-79
2022/10/11 00:09:30;;;;;;;18.77;14.13;;;;;;;15.56;83.67;95534.56;5111837;28;20443;-79
2022/10/11 00:11:56;;;;;;;18.63;14.90;;;;;;;15.56;83.83;95537.19;5111814;28;20432;-78
2022/10/11 00:14:26;;;;;;;22.60;15.10;;;;;;;15.58;83.33;95538.75;5111667;28;20443;-79
2022/10/11 00:16:53;;;;;;;21.13;16.13;;;;;;;15.57;83.54;95537.06;5111861;28;20451;-79
2022/10/11 00:19:20;;;;;;;19.10;14.77;;;;;;;15.55;84.01;95540.81;5111673;28;20496;-78
2022/10/11 00:21:47;;;;;;;22.60;14.27;;;;;;;15.49;83.83;95535.13;5111618;28;20984;-78
2022/10/11 00:24:15;;;;;;;19.50;16.17;;;;;;;15.45;84.18;95539.06;5111886;28;20511;-78
2022/10/11 00:26:42;;;;;;;17.43;15.50;;;;;;;15.48;83.89;95528.19;5114242;28;20486;-78
2022/10/11 00:29:09;;;;;;;25.87;16.47;;;;;;;15.47;84.06;95526.50;5115107;28;20442;-78
2022/10/11 00:31:37;;;;;;;24.30;15.90;;;;;;;15.40;84.32;95533.38;5115672;28;20454;-79
2022/10/11 00:34:04;;;;;;;24.33;17.60;;;;;;;15.37;84.62;95528.38;5115190;28;20447;-78
2022/10/11 00:36:31;;;;;;;43.03;16.17;;;;;;;15.34;84.69;95518.09;5115112;28;20990;-78
2022/10/11 00:38:59;;;;;;;23.87;15.87;;;;;;;15.39;85.31;95522.94;5115102;28;20447;-79
2022/10/11 00:41:25;;;;;;;23.10;16.93;;;;;;;15.38;84.94;95530.03;5115112;28;20435;-78
2022/10/11 00:44:11;;;;;;;20.30;15.90;;;;;;;15.46;84.82;95526.66;5114980;28;20444;-79
2022/10/11 00:46:42;;;;;;;17.63;15.80;;;;;;;15.46;85.03;95518.72;5114981;28;20482;-78
2022/10/11 00:49:17;;;;;;;24.17;15.97;;;;;;;15.49;83.99;95508.69;5115150;28;20448;-79
2022/10/11 00:51:49;;;;;;;23.50;17.50;;;;;;;15.46;84.60;95511.63;5114756;28;20473;-78
2022/10/11 00:54:19;;;;;;;24.20;16.63;;;;;;;15.54;84.29;95512.72;5115148;28;20443;-79
2022/10/11 00:56:52;;;;;;;20.80;15.23;;;;;;;15.61;84.06;95519.97;5114922;28;20442;-79
2022/10/11 00:59:23;;;;;;;23.37;16.50;;;;;;;15.61;83.91;95519.97;5114878;28;20444;-78
2022/10/11 01:01:51;;;;;;;19.50;15.23;;;;;;;15.64;83.25;95518.84;5114760;28;20447;-78
2022/10/11 01:04:18;;;;;;;26.73;18.50;;;;;;;15.45;84.49;95507.31;5114587;28;20488;-78
2022/10/11 01:06:45;;;;;;;26.67;17.20;;;;;;;15.47;84.25;95504.53;5114550;28;20542;-79
2022/10/11 01:09:13;;;;;;;24.33;16.43;;;;;;;15.49;84.52;95513.16;5114587;28;20507;-78
2022/10/11 01:11:42;;;;;;;16.73;14.93;;;;;;;15.44;85.23;95513.59;5114622;28;20490;-79
2022/10/11 01:14:41;;;;;;;26.63;16.63;;;;;;;15.43;85.18;95509.28;5114509;28;20934;-78
2022/10/11 01:17:21;;;;;;;22.77;17.53;;;;;;;15.35;85.40;95511.81;5114619;28;20443;-78
2022/10/11 01:20:23;;;;;;;20.10;16.63;;;;;;;15.26;85.73;95515.31;5114647;28;20444;-78
2022/10/11 01:23:31;;;;;;;29.67;17.87;;;;;;;15.17;86.05;95500.31;5022804;28;20809;-78
2022/10/11 01:26:28;;;;;;;30.60;18.53;;;;;;;15.15;86.89;95499.63;5050956;28;20449;-79
2022/10/11 01:29:10;;;;;;;24.43;17.97;;;;;;;15.13;86.87;95502.41;5051229;28;20961;-79
2022/10/11 01:31:44;;;;;;;22.67;17.10;;;;;;;15.07;87.19;95497.69;5051127;28;20434;-78
2022/10/11 01:34:15;;;;;;;22.00;16.80;;;;;;;15.08;86.95;95496.72;5050974;28;20573;-79
2022/10/11 01:36:48;;;;;;;26.83;17.37;;;;;;;15.05;87.25;95493.53;5050681;28;20437;-78
2022/10/11 01:39:23;;;;;;;22.07;17.43;;;;;;;15.02;87.59;95493.78;5050739;28;20957;-78
2022/10/11 01:41:54;;;;;;;22.87;18.53;;;;;;;15.02;87.25;95491.97;5051175;28;20944;-79
2022/10/11 01:44:23;;;;;;;24.47;16.37;;;;;;;15.11;87.00;95496.44;5050875;28;20441;-79
2022/10/11 01:46:52;;;;;;;27.30;19.27;;;;;;;15.10;87.25;95499.22;5050905;28;20991;-78
2022/10/11 01:49:19;;;;;;;29.00;20.70;;;;;;;15.04;87.32;95503.28;5050769;28;20453;-78
2022/10/11 01:51:49;;;;;;;22.10;18.77;;;;;;;14.96;87.84;95499.66;5050653;28;20481;-78
2022/10/11 01:54:47;;;;;;;22.67;17.80;;;;;;;14.92;88.01;95499.09;5090937;28;20441;-79
2022/10/11 01:57:38;;;;;;;31.67;19.07;;;;;;;14.84;88.38;95497.16;5050615;28;20585;-78
2022/10/11 02:00:12;;;;;;;25.63;19.03;;;;;;;14.92;88.31;95498.25;5050606;28;20453;-79
2022/10/11 02:02:59;;;;;;;31.37;20.00;;;;;;;14.89;88.65;95494.09;5050866;28;20452;-79
2022/10/11 02:05:35;;;;;;;30.00;18.67;;;;;;;14.84;89.20;95491.88;5050440;28;20446;-79
2022/10/11 02:08:07;;;;;;;33.00;20.10;;;;;;;14.81;89.20;95496.63;5050287;28;20558;-79
2022/10/11 02:10:40;;;;;;;26.80;19.17;;;;;;;14.86;89.10;95504.97;5050641;28;20453;-79
2022/10/11 02:13:11;;;;;;;29.20;17.23;;;;;;;14.82;88.88;95499.13;5050633;28;20982;-79
2022/10/11 02:15:42;;;;;;;33.33;21.98;;;;;;;14.81;88.86;95497.47;5049186;28;20444;-79
2022/10/11 02:18:15;;;;;;;29.20;20.47;;;;;;;14.79;89.25;95498.56;5050417;28;20204;-79
2022/10/11 02:20:45;;;;;;;30.73;19.47;;;;;;;14.93;88.25;95497.28;5050461;28;20426;-78
2022/10/11 02:23:17;;;;;;;32.27;19.30;;;;;;;14.95;88.27;95487.41;5017145;28;20917;-79
2022/10/11 02:25:45;;;;;;;34.03;18.80;;;;;;;14.94;87.81;95496.31;5050317;28;20451;-78
2022/10/11 02:28:16;;;;;;;34.47;21.20;;;;;;;14.94;88.15;95483.09;5082070;28;20475;-78
2022/10/11 02:30:46;;;;;;;31.07;21.93;;;;;;;14.89;88.81;95483.53;5113198;28;20445;-79
2022/10/11 02:33:18;;;;;;;26.97;20.50;;;;;;;14.89;88.39;95494.09;5113048;28;20500;-79
2022/10/11 02:35:50;;;;;;;29.67;19.57;;;;;;;14.87;88.83;95483.66;5113222;28;20461;-78
2022/10/11 02:38:22;;;;;;;31.00;18.70;;;;;;;14.80;89.03;95479.94;5112852;28;20836;-78
2022/10/11 02:40:56;;;;;;;26.53;19.63;;;;;;;14.81;89.54;95483.41;5112895;28;20445;-78
2022/10/11 02:43:30;;;;;;;31.10;20.03;;;;;;;14.80;89.05;95487.88;5112891;28;20445;-78
2022/10/11 02:46:00;;;;;;;28.93;20.43;;;;;;;14.80;89.25;95487.03;5112919;28;20443;-79
2022/10/11 02:48:29;;;;;;;30.40;20.67;;;;;;;14.80;89.75;95482.56;5059887;28;21084;-78
2022/10/11 02:50:57;;;;;;;33.30;20.23;;;;;;;14.80;89.56;95479.94;5059791;28;20807;-79
2022/10/11 02:53:25;;;;;;;31.20;20.17;;;;;;;14.75;89.59;95478.69;5059579;28;20484;-78
2022/10/11 02:55:54;;;;;;;31.83;21.60;;;;;;;14.77;89.84;95474.09;5112555;28;20446;-79
2022/10/11 02:58:21;;;;;;;34.93;22.13;;;;;;;14.69;90.20;95471.31;5113156;28;20443;-78
2022/10/11 03:00:48;;;;;;;27.10;18.70;;;;;;;14.74;90.65;95475.19;5112650;28;20435;-78
2022/10/11 03:03:15;;;;;;;32.63;20.90;;;;;;;14.75;90.34;95476.88;5112525;28;20446;-78
2022/10/11 03:05:43;;;;;;;35.07;21.70;;;;;;;14.72;90.88;95465.75;5112393;28;20926;-81
2022/10/11 03:08:12;;;;;;;38.83;22.43;;;;;;;14.78;90.39;95473.13;5059876;28;20488;-78
2022/10/11 03:10:39;;;;;;;33.80;21.60;;;;;;;14.82;90.21;95471.88;5112398;28;20442;-79
2022/10/11 03:13:06;;;;;;;36.20;22.47;;;;;;;14.79;89.99;95466.88;5112292;28;20432;-78
2022/10/11 03:15:33;;;;;;;29.40;19.90;;;;;;;14.69;90.29;95461.56;5112149;28;20439;-79
2022/10/11 03:18:00;;;;;;;31.00;21.00;;;;;;;14.77;90.31;95463.53;5112783;28;20852;-79
2022/10/11 03:20:27;;;;;;;33.47;21.20;;;;;;;14.84;89.71;95468.09;5112331;28;20444;-78
2022/10/11 03:22:55;;;;;;;28.80;20.27;;;;;;;14.82;89.58;95458.66;5112538;28;20495;-78
2022/10/11 03:25:22;;;;;;;28.63;20.43;;;;;;;14.82;90.20;95450.72;5112604;28;20447;-79
2022/10/11 03:27:49;;;;;;;32.60;20.50;;;;;;;14.82;90.41;95466.59;5112240;28;20482;-78
2022/10/11 03:30:16;;;;;;;27.90;19.90;;;;;;;14.74;90.51;95463.78;5112488;28;20452;-78
2022/10/11 03:32:43;;;;;;;27.27;19.53;;;;;;;14.73;90.67;95456.84;5112350;28;20531;-79
2022/10/11 03:35:10;;;;;;;28.77;20.03;;;;;;;14.74;90.67;95455.88;5112267;28;20537;-78
2022/10/11 03:37:37;;;;;;;28.90;20.77;;;;;;;14.74;90.78;95461.97;5112045;28;20832;-79
2022/10/11 03:40:07;;;;;;;32.50;21.00;;;;;;;14.70;91.34;95452.69;5112085;28;20439;-78
2022/10/11 03:42:34;;;;;;;32.53;22.10;;;;;;;14.68;91.11;95456.44;5059978;28;20448;-78
2022/10/11 03:45:03;;;;;;;33.30;21.33;;;;;;;14.64;91.45;95458.53;5112046;28;20579;-78
2022/10/11 03:47:30;;;;;;;31.33;19.20;;;;;;;14.60;91.55;95451.88;5111826;28;20797;-78
2022/10/11 03:49:57;;;;;;;35.37;22.27;;;;;;;14.65;91.67;95454.06;5112487;28;20492;-79
2022/10/11 03:52:24;;;;;;;29.37;19.93;;;;;;;14.58;92.23;95453.81;5112143;28;20473;-79
2022/10/11 03:54:51;;;;;;;30.10;19.80;;;;;;;14.62;92.41;95449.09;5112310;28;20450;-79
2022/10/11 03:57:19;;;;;;;33.83;20.57;;;;;;;14.59;92.39;95449.38;5111822;28;20449;-79
2022/10/11 03:59:46;;;;;;;37.23;20.97;;;;;;;14.68;92.34;95449.34;5111963;27;20442;-79
2022/10/11 04:02:13;;;;;;;33.30;19.30;;;;;;;14.66;91.81;95437.25;5115688;28;20449;-79
2022/10/11 04:04:40;;;;;;;31.17;21.07;;;;;;;14.55;92.46;95441.72;5115701;28;20937;-78
2022/10/11 04:07:07;;;;;;;38.70;23.67;;;;;;;14.60;92.50;95441.31;5115995;28;20948;-79
2022/10/11 04:09:35;;;;;;;29.73;19.37;;;;;;;14.63;92.35;95445.47;5113009;28;21029;-78
2022/10/11 04:12:02;;;;;;;39.07;21.00;;;;;;;14.65;92.67;95443.50;5113769;28;20535;-79
2022/10/11 04:14:30;;;;;;;29.10;20.73;;;;;;;14.71;91.86;95449.06;5116190;28;20956;-79
2022/10/11 04:16:57;;;;;;;35.53;20.73;;;;;;;14.64;92.02;95450.59;5114153;28;20866;-79
2022/10/11 04:19:24;;;;;;;37.17;20.90;;;;;;;14.58;92.69;95451.19;5111862;28;20466;-79
2022/10/11 04:21:51;;;;;;;32.57;19.93;;;;;;;14.62;92.55;95452.56;5110216;28;20451;-79
2022/10/11 04:24:18;;;;;;;33.00;19.80;;;;;;;14.51;92.89;95445.63;5114002;28;20806;-79
2022/10/11 04:26:44;;;;;;;31.57;19.77;;;;;;;14.56;92.77;95445.19;5115695;28;20515;-79
2022/10/11 04:29:11;;;;;;;32.10;17.83;;;;;;;14.59;93.07;95444.09;5115619;28;20484;-79
2022/10/11 04:31:39;;;;;;;32.40;20.70;;;;;;;14.72;91.91;95448.09;5115226;28;20443;-79
2022/10/11 04:34:06;;;;;;;29.97;17.70;;;;;;;14.62;92.00;95457.00;5062850;28;20446;-78
2022/10/11 04:36:33;;;;;;;34.77;20.03;;;;;;;14.67;91.90;95452.97;5078913;28;20449;-78
2022/10/11 04:39:00;;;;;;;36.37;20.53;;;;;;;14.54;92.68;95455.91;5115182;28;20449;-78
2022/10/11 04:41:28;;;;;;;36.30;18.23;;;;;;;14.40;93.45;95447.53;5115171;28;20451;-78
2022/10/11 04:43:55;;;;;;;28.50;18.23;;;;;;;14.45;93.78;95447.97;5114802;28;20478;-79
2022/10/11 04:46:21;;;;;;;31.37;19.33;;;;;;;14.40;94.42;95453.66;5114947;28;20554;-78
2022/10/11 04:48:50;;;;;;;33.30;19.60;;;;;;;14.45;94.04;95442.69;5115114;28;20483;-78
2022/10/11 04:51:16;;;;;;;28.27;17.53;;;;;;;14.41;94.25;95444.75;5114529;28;20447;-79
2022/10/11 04:53:43;;;;;;;30.17;19.20;;;;;;;14.34;94.64;95451.56;5115211;28;20854;-78
2022/10/11 04:56:11;;;;;;;38.00;18.23;;;;;;;14.40;94.63;95444.88;5062508;28;20998;-80
2022/10/11 04:58:40;;;;;;;30.03;19.47;;;;;;;14.53;94.51;95450.78;5062064;28;20439;-80
2022/10/11 05:01:07;;;;;;;30.70;18.83;;;;;;;14.44;94.46;95447.13;5114766;28;20534;-79
2022/10/11 05:03:34;;;;;;;34.90;20.10;;;;;;;14.55;93.98;95449.66;5114679;28;20937;-79
2022/10/11 05:06:03;;;;;;;33.87;18.80;;;;;;;14.71;93.35;95457.00;5111689;28;20471;-79
2022/10/11 05:08:30;;;;;;;30.43;17.40;;;;;;;14.54;93.46;95457.72;5110819;28;20479;-79
2022/10/11 05:10:59;;;;;;;28.63;16.40;;;;;;;14.54;93.62;95452.44;5111165;28;20949;-80
2022/10/11 05:13:26;;;;;;;35.37;17.40;;;;;;;14.58;93.47;95453.81;5113919;28;20560;-79
2022/10/11 05:15:53;;;;;;;28.40;17.50;;;;;;;14.65;94.37;95451.44;5078817;28;20492;-80
2022/10/11 05:18:20;;;;;;;25.03;17.03;;;;;;;14.68;95.01;95454.63;5114750;28;20462;-78
2022/10/11 05:20:47;;;;;;;42.97;17.53;;;;;;;14.64;93.14;95447.97;5115057;28;20447;-80
2022/10/11 05:23:15;;;;;;;25.63;15.40;;;;;;;14.68;93.28;95451.16;5108394;28;20489;-80
2022/10/11 05:25:43;;;;;;;27.33;16.40;;;;;;;14.67;92.80;95467.97;5106711;28;20449;-80
2022/10/11 05:28:10;;;;;;;26.00;16.57;;;;;;;14.64;92.81;95461.16;5114607;28;20891;-79
2022/10/11 05:30:36;;;;;;;25.80;15.60;;;;;;;14.74;92.21;95475.19;5115051;28;20454;-79
2022/10/11 05:33:03;;;;;;;30.50;16.23;;;;;;;14.83;92.94;95473.53;5112010;28;20834;-79
2022/10/11 05:35:30;;;;;;;19.60;12.30;;;;;;;14.66;92.25;95472.44;5110494;28;20537;-79
2022/10/11 05:37:57;;;;;;;23.13;15.80;;;;;;;14.75;93.16;95468.13;5114694;28;20439;-79
2022/10/11 05:40:25;;;;;;;24.40;14.93;;;;;;;14.59;92.06;95473.97;5111070;28;21662;-78
2022/10/11 05:42:52;;;;;;;22.00;15.17;;;;;;;14.67;91.74;95474.09;5099809;28;20450;-79
2022/10/11 05:45:18;;;;;;;21.57;14.37;;;;;;;14.48;91.94;95471.50;5100392;28;20506;-79
2022/10/11 05:47:45;;;;;;;27.63;14.67;;;;;;;14.65;91.11;95468.13;5106989;28;20492;-79
2022/10/11 05:50:12;;;;;;;24.37;14.07;;;;;;;14.76;90.68;95477.72;5111759;28;20482;-79
2022/10/11 05:52:39;;;;;;;19.90;13.43;;;;;;;14.71;89.75;95486.03;5097559;28;20471;-79
2022/10/11 05:55:06;;;;;;;21.43;14.20;;;;;;;14.65;89.86;95481.31;5107692;28;20461;-78
2022/10/11 05:57:34;;;;;;;21.40;14.07;;;;;;;14.53;91.76;95485.94;5097108;28;20933;-79
2022/10/11 06:00:01;;;;;;;22.17;14.90;;;;;;;14.57;91.34;95471.47;5113510;28;20443;-79
2022/10/11 06:02:28;;;;;;;23.07;15.30;;;;;;;14.72;91.35;95471.03;5113768;28;20455;-78
2022/10/11 06:04:55;;;;;;;26.33;17.60;;;;;;;14.78;91.82;95473.97;5113913;28;20482;-79
2022/10/11 06:07:22;;;;;;;22.43;15.20;;;;;;;14.92;91.17;95470.03;5113374;28;20443;-79
2022/10/11 06:09:49;;;;;;;33.30;16.67;;;;;;;15.00;91.29;95471.94;5061246;28;20479;-78
2022/10/11 06:12:16;;;;;;;22.80;15.03;;;;;;;14.96;90.80;95462.66;5060628;28;20435;-79
2022/10/11 06:14:44;;;;;;;27.20;16.90;;;;;;;15.05;90.85;95457.34;5113319;28;20448;-79
2022/10/11 06:17:11;;;;;;;28.57;17.20;;;;;;;15.18;90.89;95449.09;5113190;28;20534;-78
2022/10/11 06:19:38;;;;;;;29.13;17.47;;;;;;;15.30;90.84;95455.84;5060464;28;20473;-79
2022/10/11 06:22:04;;;;;;;29.90;17.43;;;;;;;15.37;90.29;95451.69;5113377;28;20515;-80
2022/10/11 06:24:31;;;;;;;35.83;19.17;;;;;;;15.41;90.80;95449.56;5113365;28;20805;-78
2022/10/11 06:26:58;;;;;;;39.07;19.90;;;;;;;15.42;91.48;95464.47;5060624;28;20466;-78
2022/10/11 06:29:24;;;;;;;30.53;18.77;;;;;;;15.47;91.29;95468.31;5113313;28;21085;-79
2022/10/11 06:31:53;;;;;;;30.70;19.70;;;;;;;15.54;91.27;95470.38;5113320;28;20522;-79
2022/10/11 06:34:19;;;;;;;28.90;17.47;;;;;;;15.44;91.27;95468.63;5113020;28;20560;-79
2022/10/11 06:36:46;;;;;;;29.97;19.57;;;;;;;15.51;91.61;95460.94;5112858;28;20920;-79
2022/10/11 06:39:13;;;;;;;29.97;18.27;;;;;;;15.43;90.99;95471.41;5112918;28;20446;-79
2022/10/11 06:41:40;;;;;;;32.37;21.27;;;;;;;15.49;91.08;95471.66;5112814;28;20804;-79
2022/10/11 06:44:06;;;;;;;37.20;20.87;;;;;;;15.24;91.89;95474.94;5113070;28;20491;-79
2022/10/11 06:46:33;;;;;;;34.60;22.10;;;;;;;15.28;92.61;95472.84;5113023;28;20441;-79
2022/10/11 06:49:01;;;;;;;33.53;17.47;;;;;;;15.00;94.27;95478.06;5112546;28;20482;-79
2022/10/11 06:51:29;;;;;;;31.60;19.50;;;;;;;15.13;94.27;95488.34;5112533;28;20446;-79
2022/10/11 06:53:57;;;;;;;32.60;17.77;;;;;;;14.98;95.23;95493.25;5112672;28;20525;-79
2022/10/11 06:56:25;;;;;;;26.73;16.90;;;;;;;14.80;96.28;95487.03;5112327;28;20442;-79
2022/10/11 06:58:53;;;;;;;30.43;17.17;;;;;;;14.75;97.08;95490.09;5113063;28;20448;-79
2022/10/11 07:01:22;;;;;;;24.93;16.67;;;;;;;14.76;97.11;95481.19;5112675;28;20435;-79
2022/10/11 07:03:50;;;;;;;30.17;17.83;;;;;;;14.83;96.86;95482.28;5112594;28;20527;-78
2022/10/11 07:06:22;;;;;;;34.63;18.50;;;;;;;15.06;96.16;95481.97;5112446;28;20450;-79
2022/10/11 07:08:49;;;;;;;78.20;22.33;;;;;;;15.06;95.14;95479.34;5112379;28;20488;-79
2022/10/11 07:11:17;;;;;;;23.50;14.57;;;;;;;15.07;91.70;95471.25;5112565;28;20459;-79
2022/10/11 07:13:48;;;;;;;20.73;13.50;;;;;;;14.90;90.75;95479.06;5112505;28;20957;-79
2022/10/11 07:16:15;;;;;;;26.70;16.63;;;;;;;15.02;92.04;95483.22;5112376;28;20449;-79
2022/10/11 07:18:41;;;;;;;28.13;16.00;;;;;;;14.94;92.97;95476.00;5112378;28;20450;-79
2022/10/11 07:21:12;;;;;;;28.13;15.97;;;;;;;15.04;92.08;95487.41;5112261;28;20439;-79
2022/10/11 07:23:40;;;;;;;23.77;14.67;;;;;;;15.14;89.99;95487.38;5112334;28;20447;-79
2022/10/11 07:26:08;;;;;;;29.53;15.30;;;;;;;15.20;89.81;95486.78;5112523;28;20448;-79
2022/10/11 07:28:35;;;;;;;23.73;14.07;;;;;;;15.23;89.50;95494.44;5112463;28;20665;-79
2022/10/11 07:31:05;;;;;;;30.07;15.93;;;;;;;15.26;89.19;95486.22;5112680;28;20450;-79
2022/10/11 07:33:32;;;;;;;24.30;14.43;;;;;;;15.35;88.40;95489.81;5112298;28;20443;-79
2022/10/11 07:35:59;;;;;;;30.30;15.57;;;;;;;15.40;87.74;95482.28;5114294;28;20448;-80
2022/10/11 07:38:26;;;;;;;32.90;16.93;;;;;;;15.43;87.65;95489.94;5116575;28;20453;-79
2022/10/11 07:40:54;;;;;;;22.17;14.50;;;;;;;15.43;87.42;95490.75;5116407;28;20499;-79
2022/10/11 07:43:21;;;;;;;27.30;15.97;;;;;;;15.46;87.92;95494.94;5116329;28;20550;-79
2022/10/11 07:45:53;;;;;;;30.90;16.93;;;;;;;15.46;88.33;95487.81;5116323;28;20453;-79
2022/10/11 07:48:20;;;;;;;24.17;15.40;;;;;;;15.28;88.51;95486.91;5116264;28;20432;-79
2022/10/11 07:50:47;;;;;;;20.30;14.30;;;;;;;15.29;88.12;95490.38;5116099;28;21197;-79
2022/10/11 07:53:14;;;;;;;24.80;16.30;;;;;;;15.36;88.48;95483.56;5116547;28;20867;-78
2022/10/11 07:55:41;;;;;;;27.33;15.43;;;;;;;15.06;88.29;95485.44;5063366;28;20965;-78
2022/10/11 07:58:10;;;;;;;17.20;13.83;;;;;;;15.10;88.13;95486.84;5116184;28;20439;-79
2022/10/11 08:00:38;;;;;;;22.37;15.30;;;;;;;15.21;88.20;95491.09;5116176;28;20443;-79
2022/10/11 08:03:06;;;;;;;23.20;14.87;;;;;;;15.31;88.09;95493.72;5115779;28;20439;-79
2022/10/11 08:05:33;;;;;;;30.23;16.83;;;;;;;15.53;87.61;95489.88;5116153;28;20455;-79
2022/10/11 08:08:00;;;;;;;24.53;15.93;;;;;;;15.59;88.19;95481.38;5116070;28;20441;-79
2022/10/11 08:10:28;;;;;;;24.07;15.27;;;;;;;15.64;88.09;95481.81;5115956;28;20481;-79
2022/10/11 08:12:54;;;;;;;21.83;15.80;;;;;;;15.67;86.49;95494.75;5063803;28;20431;-79
2022/10/11 08:15:23;;;;;;;20.10;13.80;;;;;;;15.73;86.11;95494.97;5115791;28;20440;-79
2022/10/11 08:17:49;;;;;;;21.87;14.70;;;;;;;15.74;86.02;95501.09;5116111;28;20856;-79
2022/10/11 08:20:16;;;;;;;22.57;15.17;;;;;;;15.92;85.99;95502.00;5063311;28;20519;-79
2022/10/11 08:22:43;;;;;;;24.43;15.70;;;;;;;15.82;87.01;95501.19;5063057;28;20511;-79
2022/10/11 08:25:10;;;;;;;31.07;16.73;;;;;;;15.99;87.24;95502.22;5115492;28;20831;-79
2022/10/11 08:27:36;;;;;;;27.63;15.90;;;;;;;16.10;86.21;95516.09;5115420;28;20461;-79
2022/10/11 08:30:03;;;;;;;24.43;14.70;;;;;;;15.98;87.08;95503.22;5115378;28;20506;-79
2022/10/11 08:32:32;;;;;;;24.33;14.63;;;;;;;16.07;87.13;95504.97;5115532;28;20447;-79
2022/10/11 08:34:58;;;;;;;25.40;16.13;;;;;;;16.04;85.95;95502.63;5115447;28;20449;-79
2022/10/11 08:37:25;;;;;;;24.43;14.80;;;;;;;16.18;86.35;95502.09;5115391;28;20446;-79
2022/10/11 08:39:52;;;;;;;21.27;14.30;;;;;;;16.21;84.77;95504.47;5115114;28;20445;-79
2022/10/11 08:42:28;;;;;;;19.80;14.90;;;;;;;16.31;85.15;95502.59;5115121;28;20934;-79
2022/10/11 08:45:00;;;;;;;20.43;14.33;;;;;;;16.46;85.22;95494.94;5115188;28;20435;-79
2022/10/11 08:47:31;;;;;;;21.97;13.87;;;;;;;16.43;83.51;95498.72;5115182;28;20476;-79
2022/10/11 08:50:00;;;;;;;28.47;15.80;;;;;;;16.32;83.41;95503.41;5115349;28;20482;-79
2022/10/11 08:52:30;;;;;;;26.30;15.07;;;;;;;16.48;84.08;95497.44;5115213;28;20484;-79
2022/10/11 08:55:03;;;;;;;23.87;16.40;;;;;;;16.64;83.34;95498.44;5114887;28;20855;-79
2022/10/11 08:57:33;;;;;;;23.50;15.83;;;;;;;16.71;82.31;95494.19;5115203;28;20517;-79
2022/10/11 09:00:04;;;;;;;20.63;15.37;;;;;;;16.88;81.39;95502.31;5115262;28;20443;-79
2022/10/11 09:02:40;;;;;;;26.50;14.20;;;;;;;16.99;81.36;95512.66;5114833;28;20832;-78
2022/10/11 09:05:14;;;;;;;24.23;15.10;;;;;;;16.99;80.38;95504.69;5114740;28;20443;-79
2022/10/11 09:07:54;;;;;;;23.57;15.60;;;;;;;16.69;82.18;95504.13;5114923;28;20492;-79
2022/10/11 09:10:38;;;;;;;21.67;14.10;;;;;;;16.68;82.36;95496.34;5115281;28;20558;-78
2022/10/11 09:13:17;;;;;;;24.07;14.93;;;;;;;16.83;81.75;95493.97;5114600;28;20929;-79
2022/10/11 09:15:55;;;;;;;23.57;15.50;;;;;;;16.81;82.11;95490.66;5114696;28;20438;-79
2022/10/11 09:18:42;;;;;;;21.03;14.83;;;;;;;16.94;81.82;95489.25;5114714;28;20481;-79
2022/10/11 09:21:24;;;;;;;19.67;14.77;;;;;;;17.11;80.91;95489.41;5114503;28;20450;-79
2022/10/11 09:24:23;;;;;;;24.73;14.23;;;;;;;17.09;79.93;95489.56;5114864;28;20867;-80
2022/10/11 09:26:56;;;;;;;26.87;14.27;;;;;;;17.17;79.90;95491.41;5031466;28;20451;-79
2022/10/11 09:29:43;;;;;;;22.37;14.57;;;;;;;17.31;79.74;95496.13;5031474;28;20590;-79
2022/10/11 09:32:14;;;;;;;21.57;13.60;;;;;;;17.48;79.83;95497.91;5031570;28;20513;-79
2022/10/11 09:34:42;;;;;;;22.40;16.73;;;;;;;17.59;79.48;95494.13;5031243;28;20542;-79
2022/10/11 09:37:19;;;;;;;22.87;13.97;;;;;;;17.55;77.26;95493.63;5031475;28;20450;-79
2022/10/11 09:39:51;;;;;;;19.60;14.97;;;;;;;17.53;77.84;95498.25;5031588;28;20438;-79
2022/10/11 09:42:17;;;;;;;28.60;16.50;;;;;;;17.67;79.07;95494.22;5031427;28;20542;-79
2022/10/11 09:44:47;;;;;;;22.20;15.30;;;;;;;17.60;77.82;95493.97;5031346;28;20442;-79
2022/10/11 09:47:16;;;;;;;21.43;14.53;;;;;;;17.57;77.22;95494.31;5031268;28;20555;-79
2022/10/11 09:49:48;;;;;;;42.43;14.50;;;;;;;17.67;77.48;95488.06;5030993;28;20482;-79
2022/10/11 09:52:20;;;;;;;24.83;15.33;;;;;;;17.74;77.67;95483.81;5030933;28;20467;-79
2022/10/11 09:54:48;;;;;;;22.03;15.80;;;;;;;17.82;77.10;95476.69;5030930;28;20447;-79
2022/10/11 09:57:23;;;;;;;20.53;14.70;;;;;;;17.63;76.88;95482.22;5031015;28;20858;-79
2022/10/11 10:00:02;;;;;;;19.07;14.17;;;;;;;17.82;76.75;95481.19;5030664;28;20450;-79
2022/10/11 10:02:30;;;;;;;23.27;14.03;;;;;;;17.87;75.94;95479.69;5030997;28;20496;-80
2022/10/11 10:05:04;;;;;;;19.40;13.10;;;;;;;18.03;75.12;95472.78;5100837;28;20439;-79
2022/10/11 10:07:34;;;;;;;16.30;13.40;;;;;;;18.09;74.84;95472.97;5113844;28;20443;-79
2022/10/11 10:10:26;;;;;;;20.03;13.60;;;;;;;18.14;75.45;95465.34;5113271;28;20487;-80
2022/10/11 10:12:54;;;;;;;18.80;14.10;;;;;;;18.14;75.08;95465.34;5113689;28;20489;-79
2022/10/11 10:15:22;;;;;;;21.70;16.10;;;;;;;18.15;74.82;95471.50;5113339;28;20474;-79
2022/10/11 10:17:49;;;;;;;23.63;15.07;;;;;;;18.13;73.88;95453.06;5113532;28;20439;-80
2022/10/11 10:20:21;;;;;;;25.67;14.40;;;;;;;18.17;74.56;95454.41;5113241;28;20937;-79
2022/10/11 10:22:49;;;;;;;19.93;15.03;;;;;;;18.20;74.71;95455.88;5061716;28;20513;-79
2022/10/11 10:25:24;;;;;;;26.07;15.50;;;;;;;18.23;74.95;95452.94;5113223;28;20492;-79
2022/10/11 10:27:58;;;;;;;17.70;13.90;;;;;;;18.23;74.11;95450.28;5113541;28;20442;-79
2022/10/11 10:30:26;;;;;;;20.03;13.37;;;;;;;18.31;74.36;95452.94;5113187;28;20984;-79
2022/10/11 10:32:58;;;;;;;23.00;12.13;;;;;;;18.08;73.72;95443.91;5113036;28;20450;-80
2022/10/11 10:35:35;;;;;;;21.27;15.20;;;;;;;18.10;74.49;95452.56;5113366;28;20508;-79
2022/10/11 10:38:19;;;;;;;27.17;12.73;;;;;;;17.94;74.15;95451.53;5112996;28;20495;-80
2022/10/11 10:40:49;;;;;;;20.20;12.50;;;;;;;18.13;74.92;95446.91;5112815;28;20450;-79
2022/10/11 10:43:19;;;;;;;17.70;14.30;;;;;;;18.27;73.96;95451.63;5112909;28;20830;-79
2022/10/11 10:46:07;;;;;;;17.07;11.63;;;;;;;18.24;72.79;95442.16;5112854;28;20448;-79
2022/10/11 10:48:42;;;;;;;18.73;13.83;;;;;;;18.26;73.58;95437.50;5010284;28;20451;-79
2022/10/11 10:51:19;;;;;;;19.30;13.20;;;;;;;18.45;74.01;95440.81;5010241;28;20486;-79
2022/10/11 10:53:54;;;;;;;20.13;14.47;;;;;;;18.52;75.07;95434.69;5010236;28;20456;-79
2022/10/11 10:56:27;;;;;;;29.23;15.07;;;;;;;18.34;73.97;95428.69;5010256;28;20812;-79
2022/10/11 10:59:12;;;;;;;23.63;16.77;;;;;;;18.35;75.24;95422.38;5010447;28;20830;-79
2022/10/11 11:01:46;;;;;;;21.13;14.67;;;;;;;18.20;74.33;95416.88;5010207;28;20455;-79
2022/10/11 11:04:24;;;;;;;25.73;13.43;;;;;;;17.97;74.60;95433.63;5010124;28;20443;-79
2022/10/11 11:06:55;;;;;;;21.27;15.70;;;;;;;18.20;75.83;95419.53;5010011;28;20447;-79
2022/10/11 11:09:34;;;;;;;21.23;15.90;;;;;;;18.36;76.13;95417.91;5009955;28;20536;-79
2022/10/11 11:12:15;;;;;;;19.53;15.10;;;;;;;18.41;74.87;95419.06;5009532;28;20498;-79
2022/10/11 11:14:51;;;;;;;23.33;15.30;;;;;;;18.41;73.73;95418.22;5010100;28;20562;-79
2022/10/11 11:17:29;;;;;;;17.80;13.87;;;;;;;18.51;73.53;95419.75;5009966;28;20452;-79
2022/10/11 11:20:13;;;;;;;18.20;12.43;;;;;;;18.27;72.12;95417.91;5010052;28;20442;-79
2022/10/11 11:22:50;;;;;;;20.17;13.63;;;;;;;18.20;73.50;95416.03;5010150;28;20447;-79
2022/10/11 11:25:27;;;;;;;21.83;14.03;;;;;;;18.43;74.32;95409.09;5041190;28;20442;-79
2022/10/11 11:28:10;;;;;;;18.97;14.20;;;;;;;18.60;73.05;95404.63;5112284;28;20443;-79
2022/10/11 11:30:50;;;;;;;21.57;13.97;;;;;;;18.50;71.94;95399.50;5112173;28;20490;-80
2022/10/11 11:33:28;;;;;;;17.90;13.87;;;;;;;18.47;71.51;95405.09;5112198;28;20450;-79